createdAt,value
2019-02-27T00:00:47.953Z,1.40
2019-02-27T00:03:17.297Z,1.50
2019-02-27T00:05:47.124Z,1.40
2019-02-27T00:08:15.541Z,1.37
2019-02-27T00:10:45.653Z,1.40
2019-02-27T00:13:15.416Z,1.30
2019-02-27T00:15:43.842Z,2.10
2019-02-27T00:18:15.512Z,1.30
2019-02-27T00:20:47.139Z,1.20
2019-02-27T00:23:15.873Z,2.77
2019-02-27T00:25:44.416Z,1.47
2019-02-27T00:28:13.102Z,1.37
2019-02-27T00:30:41.514Z,1.30
2019-02-27T00:33:11.915Z,1.27
2019-02-27T00:35:40.324Z,1.20
2019-02-27T00:38:10.673Z,1.60
2019-02-27T00:40:44.213Z,1.87
2019-02-27T00:43:16.581Z,1.23
2019-02-27T00:45:45.282Z,2.50
2019-02-27T00:48:13.785Z,2.70
2019-02-27T00:50:42.197Z,1.50
2019-02-27T00:53:11.194Z,1.43
2019-02-27T00:55:39.613Z,1.00
2019-02-27T00:58:08.047Z,1.33
2019-02-27T01:00:39.248Z,1.33
2019-02-27T01:03:06.844Z,1.20
2019-02-27T01:05:35.268Z,1.17
2019-02-27T01:08:03.835Z,1.37
2019-02-27T01:10:33.889Z,1.10
2019-02-27T01:13:02.604Z,1.73
2019-02-27T01:15:31.422Z,1.20
2019-02-27T01:17:59.833Z,1.63
2019-02-27T01:20:29.449Z,1.10
2019-02-27T01:22:58.361Z,1.27
2019-02-27T01:25:26.799Z,1.13
2019-02-27T01:27:56.845Z,1.00
2019-02-27T01:30:27.722Z,1.10
2019-02-27T01:32:58.083Z,2.93
2019-02-27T01:35:29.477Z,1.20
2019-02-27T01:37:59.614Z,1.40
2019-02-27T01:40:29.690Z,1.20
2019-02-27T01:42:59.502Z,1.40
2019-02-27T01:45:27.918Z,1.30
2019-02-27T01:47:56.361Z,1.30
2019-02-27T01:50:30.332Z,1.13
2019-02-27T01:52:58.780Z,1.77
2019-02-27T01:55:27.189Z,1.10
2019-02-27T01:57:55.929Z,1.30
2019-02-27T02:00:24.336Z,1.60
2019-02-27T02:02:54.083Z,1.70
2019-02-27T02:05:26.247Z,1.30
2019-02-27T02:07:55.685Z,2.13
2019-02-27T02:10:27.980Z,1.40
2019-02-27T02:13:00.098Z,1.07
2019-02-27T02:15:49.601Z,2.40
2019-02-27T02:18:40.719Z,1.27
2019-02-27T02:21:23.672Z,1.33
2019-02-27T02:24:16.371Z,1.40
2019-02-27T02:26:55.046Z,1.63
2019-02-27T02:29:52.999Z,1.30
2019-02-27T02:32:26.974Z,1.20
2019-02-27T02:35:15.973Z,1.33
2019-02-27T02:37:59.810Z,1.70
2019-02-27T02:40:43.709Z,2.00
2019-02-27T02:43:26.841Z,0.80
2019-02-27T02:46:09.807Z,1.30
2019-02-27T02:48:53.273Z,1.37
2019-02-27T02:51:45.779Z,1.10
2019-02-27T02:54:45.940Z,1.43
2019-02-27T02:57:35.937Z,1.00
2019-02-27T03:00:18.264Z,1.20
2019-02-27T03:02:57.560Z,0.90
2019-02-27T03:05:44.553Z,1.20
2019-02-27T03:08:28.026Z,3.23
2019-02-27T03:11:23.998Z,2.23
2019-02-27T03:13:55.677Z,4.10
2019-02-27T03:16:32.909Z,1.10
2019-02-27T03:19:07.286Z,1.20
2019-02-27T03:22:03.585Z,2.20
2019-02-27T03:25:03.663Z,0.90
2019-02-27T03:27:38.301Z,1.10
2019-02-27T03:30:36.316Z,1.10
2019-02-27T03:33:27.943Z,1.70
2019-02-27T03:36:04.411Z,1.20
2019-02-27T03:39:12.714Z,1.10
2019-02-27T03:42:18.979Z,0.90
2019-02-27T03:45:17.564Z,1.00
2019-02-27T03:47:53.553Z,1.57
2019-02-27T03:50:30.962Z,1.47
2019-02-27T03:53:21.930Z,1.20
2019-02-27T03:55:54.439Z,2.20
2019-02-27T03:58:43.361Z,1.00
2019-02-27T04:01:30.687Z,1.10
2019-02-27T04:04:12.738Z,1.40
2019-02-27T04:07:02.339Z,2.03
2019-02-27T04:09:30.758Z,1.00
2019-02-27T04:12:01.396Z,1.40
2019-02-27T04:14:41.774Z,2.57
2019-02-27T04:17:08.427Z,3.40
2019-02-27T04:19:39.256Z,1.23
2019-02-27T04:22:07.420Z,1.07
2019-02-27T04:24:38.384Z,0.87
2019-02-27T04:27:08.651Z,1.20
2019-02-27T04:29:40.850Z,0.80
2019-02-27T04:32:12.437Z,1.00
2019-02-27T04:34:40.829Z,1.17
2019-02-27T04:37:09.489Z,0.83
2019-02-27T04:39:40.999Z,2.87
2019-02-27T04:42:09.641Z,0.80
2019-02-27T04:44:38.869Z,0.90
2019-02-27T04:47:08.222Z,1.60
2019-02-27T04:49:38.432Z,0.80
2019-02-27T04:52:08.069Z,1.10
2019-02-27T04:54:41.640Z,2.50
2019-02-27T04:57:13.788Z,0.80
2019-02-27T04:59:43.864Z,0.80
2019-02-27T05:02:14.564Z,1.10
2019-02-27T05:04:43.806Z,1.20
2019-02-27T05:07:12.703Z,1.20
2019-02-27T05:09:42.651Z,1.20
2019-02-27T05:12:11.081Z,1.43
2019-02-27T05:14:39.481Z,1.13
2019-02-27T05:17:09.541Z,1.13
2019-02-27T05:19:42.119Z,0.97
2019-02-27T05:22:11.126Z,0.90
2019-02-27T05:24:41.556Z,2.23
2019-02-27T05:27:10.262Z,0.80
2019-02-27T05:29:41.207Z,0.97
2019-02-27T05:32:11.521Z,1.07
2019-02-27T05:34:41.562Z,0.83
2019-02-27T05:37:09.999Z,0.80
2019-02-27T05:39:40.385Z,1.00
2019-02-27T05:42:09.977Z,2.97
2019-02-27T05:44:38.410Z,1.23
2019-02-27T05:47:11.047Z,1.10
2019-02-27T05:49:40.430Z,1.10
2019-02-27T05:52:09.189Z,0.80
2019-02-27T05:54:39.002Z,0.90
2019-02-27T05:57:08.246Z,2.07
2019-02-27T05:59:39.345Z,0.90
2019-02-27T06:02:10.901Z,0.90
2019-02-27T06:04:42.666Z,0.87
2019-02-27T06:07:11.351Z,1.17
2019-02-27T06:09:43.731Z,0.80
2019-02-27T06:12:15.136Z,0.73
2019-02-27T06:14:45.445Z,1.10
2019-02-27T06:17:17.343Z,1.77
2019-02-27T06:19:47.390Z,0.70
2019-02-27T06:22:16.960Z,1.30
2019-02-27T06:24:49.094Z,0.90
2019-02-27T06:27:19.159Z,1.20
2019-02-27T06:29:50.845Z,1.43
2019-02-27T06:32:22.599Z,2.47
2019-02-27T06:34:52.315Z,2.30
2019-02-27T06:37:22.247Z,1.10
2019-02-27T06:39:50.682Z,1.77
2019-02-27T06:42:20.737Z,1.20
2019-02-27T06:44:49.157Z,1.27
2019-02-27T06:47:17.566Z,2.27
2019-02-27T06:49:51.860Z,3.03
2019-02-27T06:52:19.512Z,1.13
2019-02-27T06:54:52.138Z,1.10
2019-02-27T06:57:21.182Z,1.40
2019-02-27T06:59:49.617Z,0.90
2019-02-27T07:02:21.701Z,1.63
2019-02-27T07:04:51.880Z,1.20
2019-02-27T07:07:23.254Z,1.53
2019-02-27T07:09:55.475Z,0.87
2019-02-27T07:12:25.054Z,1.10
2019-02-27T07:14:53.468Z,0.90
2019-02-27T07:17:24.404Z,1.73
2019-02-27T07:19:53.182Z,0.80
2019-02-27T07:22:24.986Z,2.40
2019-02-27T07:24:56.229Z,1.47
2019-02-27T07:27:24.673Z,1.30
2019-02-27T07:29:54.538Z,1.00
2019-02-27T07:32:24.006Z,1.30
2019-02-27T07:34:53.943Z,2.17
2019-02-27T07:37:23.353Z,1.10
2019-02-27T07:39:52.930Z,2.03
2019-02-27T07:42:21.347Z,1.87
2019-02-27T07:44:49.789Z,1.10
2019-02-27T07:47:18.204Z,1.43
2019-02-27T07:49:48.302Z,1.67
2019-02-27T07:52:18.221Z,1.10
2019-02-27T07:54:46.957Z,3.17
2019-02-27T07:57:15.370Z,0.80
2019-02-27T07:59:45.415Z,1.57
2019-02-27T08:02:13.853Z,1.30
2019-02-27T08:04:45.365Z,1.30
2019-02-27T08:07:15.425Z,1.27
2019-02-27T08:09:43.836Z,1.20
2019-02-27T08:12:12.928Z,2.20
2019-02-27T08:14:41.339Z,0.90
2019-02-27T08:17:17.350Z,1.13
2019-02-27T08:19:49.301Z,1.13
2019-02-27T08:25:25.575Z,3.17
2019-02-27T08:28:32.291Z,1.27
2019-02-27T08:30:46.630Z,2.77
2019-02-27T08:36:09.338Z,1.73
2019-02-27T08:38:38.046Z,1.27
2019-02-27T08:41:08.790Z,4.47
2019-02-27T08:43:41.230Z,1.73
2019-02-27T08:46:11.508Z,2.17
2019-02-27T08:48:40.150Z,2.17
2019-02-27T08:51:08.868Z,3.20
2019-02-27T08:53:37.300Z,1.20
2019-02-27T08:56:15.109Z,1.70
2019-02-27T08:58:44.757Z,1.43
2019-02-27T09:01:13.505Z,2.97
2019-02-27T09:03:43.186Z,2.03
2019-02-27T09:06:12.189Z,2.43
2019-02-27T09:08:44.058Z,1.50
2019-02-27T09:11:25.232Z,1.50
2019-02-27T09:13:59.086Z,2.70
2019-02-27T09:16:33.879Z,1.23
2019-02-27T09:19:02.286Z,3.50
2019-02-27T09:21:33.406Z,3.27
2019-02-27T09:24:04.797Z,1.60
2019-02-27T09:26:36.090Z,1.40
2019-02-27T09:29:04.313Z,4.57
2019-02-27T09:31:34.773Z,1.67
2019-02-27T09:34:06.669Z,1.10
2019-02-27T09:36:37.409Z,1.70
2019-02-27T09:39:11.369Z,3.40
2019-02-27T09:41:46.042Z,1.40
2019-02-27T09:44:13.012Z,1.33
2019-02-27T09:46:41.421Z,3.93
2019-02-27T09:49:11.120Z,1.50
2019-02-27T09:51:39.781Z,4.07
2019-02-27T09:54:13.299Z,1.63
2019-02-27T09:56:43.497Z,1.60
2019-02-27T09:59:19.768Z,2.90
2019-02-27T10:01:48.790Z,3.53
2019-02-27T10:04:18.682Z,1.43
2019-02-27T10:06:47.098Z,1.80
2019-02-27T10:09:16.671Z,2.13
2019-02-27T10:11:45.099Z,1.30
2019-02-27T10:14:14.159Z,2.17
2019-02-27T10:16:52.595Z,1.43
2019-02-27T10:19:27.011Z,3.27
2019-02-27T10:21:56.062Z,1.33
2019-02-27T10:24:24.477Z,15.53
2019-02-27T10:26:53.518Z,190.00
2019-02-27T10:29:22.542Z,149.90
2019-02-27T10:31:51.536Z,76.30
2019-02-27T10:34:22.217Z,39.53
2019-02-27T10:36:51.725Z,30.03
2019-02-27T10:39:21.417Z,23.23
2019-02-27T10:41:50.628Z,15.47
2019-02-27T10:44:23.002Z,19.50
2019-02-27T10:46:52.684Z,17.77
2019-02-27T10:49:22.748Z,15.80
2019-02-27T10:51:54.959Z,11.87
2019-02-27T10:54:25.505Z,12.43
2019-02-27T10:56:56.571Z,12.43
2019-02-27T10:59:28.745Z,10.33
2019-02-27T11:01:58.508Z,13.73
2019-02-27T11:04:28.545Z,11.23
2019-02-27T11:06:58.233Z,11.13
2019-02-27T11:09:30.265Z,10.70
2019-02-27T11:11:58.697Z,8.27
2019-02-27T11:14:32.033Z,7.97
2019-02-27T11:17:03.297Z,8.70
2019-02-27T11:19:35.516Z,8.83
2019-02-27T11:22:04.888Z,9.10
2019-02-27T11:24:33.540Z,6.53
2019-02-27T11:27:06.175Z,6.97
2019-02-27T11:29:35.828Z,8.37
2019-02-27T11:32:06.995Z,7.00
2019-02-27T11:34:38.726Z,11.10
2019-02-27T11:37:13.159Z,12.00
2019-02-27T11:39:41.798Z,13.83
2019-02-27T11:42:12.122Z,13.90
2019-02-27T11:44:41.572Z,14.33
2019-02-27T11:47:12.561Z,15.57
2019-02-27T11:49:42.957Z,25.17
2019-02-27T11:52:11.373Z,23.93
2019-02-27T11:54:43.819Z,17.67
2019-02-27T11:57:13.766Z,17.83
2019-02-27T11:59:47.949Z,14.07
2019-02-27T12:02:28.794Z,17.53
2019-02-27T12:04:55.257Z,16.03
2019-02-27T12:07:23.806Z,16.40
2019-02-27T12:09:56.818Z,11.27
2019-02-27T12:12:25.505Z,15.10
2019-02-27T12:14:54.242Z,10.83
2019-02-27T12:17:23.274Z,12.37
2019-02-27T12:19:53.621Z,8.17
2019-02-27T12:22:23.943Z,8.50
2019-02-27T12:24:55.334Z,9.27
2019-02-27T12:27:45.178Z,9.63
2019-02-27T12:29:56.034Z,8.43
2019-02-27T12:32:27.040Z,9.67
2019-02-27T12:34:56.696Z,10.40
2019-02-27T12:37:31.472Z,9.97
2019-02-27T12:39:58.438Z,8.90
2019-02-27T12:42:36.781Z,8.80
2019-02-27T12:44:59.302Z,11.03
2019-02-27T12:47:30.646Z,10.60
2019-02-27T12:50:01.049Z,7.43
2019-02-27T12:52:33.033Z,8.77
2019-02-27T12:55:04.633Z,7.90
2019-02-27T12:57:34.932Z,10.20
2019-02-27T13:00:08.394Z,7.93
2019-02-27T13:02:37.108Z,7.30
2019-02-27T13:05:10.545Z,9.43
2019-02-27T13:07:44.724Z,5.60
2019-02-27T13:10:16.737Z,5.97
2019-02-27T13:12:51.864Z,6.70
2019-02-27T13:15:23.730Z,6.27
2019-02-27T13:17:56.065Z,6.13
2019-02-27T13:20:27.946Z,11.13
2019-02-27T13:22:56.358Z,6.60
2019-02-27T13:25:26.976Z,6.20
2019-02-27T13:28:08.404Z,5.73
2019-02-27T13:30:41.374Z,6.77
2019-02-27T13:33:08.997Z,6.63
2019-02-27T13:35:39.029Z,5.93
2019-02-27T13:38:07.466Z,5.40
2019-02-27T13:40:36.355Z,5.77
2019-02-27T13:43:04.808Z,5.17
2019-02-27T13:45:33.582Z,6.57
2019-02-27T13:48:05.889Z,7.07
2019-02-27T13:50:32.713Z,6.17
2019-02-27T13:53:02.996Z,5.30
2019-02-27T13:55:31.682Z,4.97
2019-02-27T13:58:03.720Z,7.13
2019-02-27T14:00:37.621Z,8.27
2019-02-27T14:03:12.086Z,9.27
2019-02-27T14:05:37.288Z,5.37
2019-02-27T14:08:08.446Z,5.53
2019-02-27T14:10:37.157Z,5.23
2019-02-27T14:13:09.735Z,4.43
2019-02-27T14:15:39.105Z,5.17
2019-02-27T14:18:09.113Z,7.67
2019-02-27T14:20:40.001Z,4.60
2019-02-27T14:23:08.418Z,4.37
2019-02-27T14:25:38.485Z,3.87
2019-02-27T14:28:06.902Z,7.63
2019-02-27T14:30:47.665Z,4.93
2019-02-27T14:33:19.592Z,5.03
2019-02-27T14:35:51.814Z,5.37
2019-02-27T14:38:24.026Z,6.40
2019-02-27T14:40:54.781Z,5.40
2019-02-27T14:43:30.905Z,4.17
2019-02-27T14:46:00.929Z,4.87
2019-02-27T14:48:30.982Z,4.00
2019-02-27T14:50:59.718Z,4.73
2019-02-27T14:53:29.163Z,4.33
2019-02-27T14:55:57.818Z,6.07
2019-02-27T14:58:26.244Z,5.13
2019-02-27T15:00:54.724Z,4.60
2019-02-27T15:03:29.203Z,5.67
2019-02-27T15:06:02.495Z,6.37
2019-02-27T15:08:32.840Z,3.47
2019-02-27T15:11:02.437Z,4.67
2019-02-27T15:13:32.826Z,4.23
2019-02-27T15:16:01.284Z,3.80
2019-02-27T15:21:24.357Z,9.17
2019-02-27T15:23:52.793Z,19.57
2019-02-27T15:26:25.088Z,19.27
2019-02-27T15:28:55.053Z,8.93
2019-02-27T15:31:28.004Z,8.47
2019-02-27T15:33:58.667Z,31.47
2019-02-27T15:36:30.196Z,15.57
2019-02-27T15:39:07.518Z,15.80
2019-02-27T15:41:35.976Z,9.63
2019-02-27T15:44:05.880Z,11.87
2019-02-27T15:46:34.476Z,7.13
2019-02-27T15:49:04.487Z,7.13
2019-02-27T15:51:33.245Z,11.63
2019-02-27T15:54:05.941Z,9.20
2019-02-27T15:56:34.491Z,7.17
2019-02-27T15:59:06.215Z,6.47
2019-02-27T16:01:33.278Z,4.77
2019-02-27T16:04:04.989Z,4.27
2019-02-27T16:06:37.101Z,4.80
2019-02-27T16:09:09.601Z,4.37
2019-02-27T16:11:38.624Z,5.43
2019-02-27T16:14:10.246Z,7.17
2019-02-27T16:16:41.973Z,4.17
2019-02-27T16:19:11.613Z,6.23
2019-02-27T16:21:41.706Z,17.77
2019-02-27T16:24:11.829Z,6.43
2019-02-27T16:26:40.257Z,5.20
2019-02-27T16:29:11.210Z,3.57
2019-02-27T16:31:39.973Z,5.83
2019-02-27T16:34:09.354Z,5.93
2019-02-27T16:36:39.228Z,4.27
2019-02-27T16:39:08.324Z,4.97
2019-02-27T16:41:39.465Z,5.20
2019-02-27T16:44:11.172Z,4.20
2019-02-27T16:46:44.583Z,4.47
2019-02-27T16:49:15.988Z,6.27
2019-02-27T16:51:46.434Z,4.27
2019-02-27T16:54:17.050Z,4.90
2019-02-27T16:56:48.281Z,4.07
2019-02-27T16:59:21.156Z,4.00
2019-02-27T17:01:51.424Z,3.20
2019-02-27T17:04:19.790Z,4.50
2019-02-27T17:06:49.131Z,2.40
2019-02-27T17:09:18.322Z,4.40
2019-02-27T17:11:48.054Z,2.47
2019-02-27T17:14:16.489Z,3.23
2019-02-27T17:16:45.563Z,2.83
2019-02-27T17:19:13.939Z,3.17
2019-02-27T17:21:46.986Z,4.67
2019-02-27T17:27:32.160Z,7.77
2019-02-27T17:30:50.486Z,4.80
2019-02-27T17:33:21.101Z,2.83
2019-02-27T17:36:10.932Z,339.23
2019-02-27T17:38:40.219Z,491.73
2019-02-27T17:41:09.835Z,1999.90
2019-02-27T17:43:46.169Z,758.57
2019-02-27T17:46:21.495Z,1999.90
2019-02-27T17:48:57.414Z,1896.47
2019-02-27T17:51:31.983Z,840.03
2019-02-27T17:54:03.540Z,737.73
2019-02-27T17:56:39.290Z,615.23
2019-02-27T17:59:25.347Z,555.83
2019-02-27T18:01:58.480Z,513.60
2019-02-27T18:04:27.131Z,470.97
2019-02-27T18:07:00.581Z,431.30
2019-02-27T18:09:28.593Z,401.60
2019-02-27T18:11:58.095Z,373.23
2019-02-27T18:14:26.656Z,374.20
2019-02-27T18:16:59.264Z,347.20
2019-02-27T18:19:26.722Z,328.33
2019-02-27T18:21:56.439Z,302.20
2019-02-27T18:24:26.489Z,281.40
2019-02-27T18:26:54.941Z,270.20
2019-02-27T18:29:26.057Z,281.17
2019-02-27T18:31:58.269Z,256.53
2019-02-27T18:34:27.226Z,242.03
2019-02-27T18:36:55.681Z,256.60
2019-02-27T18:39:25.935Z,233.50
2019-02-27T18:41:59.001Z,222.20
2019-02-27T18:44:30.442Z,216.90
2019-02-27T18:47:01.709Z,211.77
2019-02-27T18:49:31.078Z,202.30
2019-02-27T18:52:00.974Z,196.67
2019-02-27T18:54:32.218Z,192.30
2019-02-27T18:57:03.461Z,182.30
2019-02-27T18:59:34.790Z,185.30
2019-02-27T19:02:04.663Z,171.87
2019-02-27T19:04:35.301Z,163.67
2019-02-27T19:07:03.761Z,168.67
2019-02-27T19:09:35.225Z,156.77
2019-02-27T19:12:09.238Z,154.37
2019-02-27T19:14:39.561Z,146.90
2019-02-27T19:17:13.558Z,148.00
2019-02-27T19:19:48.911Z,141.23
2019-02-27T19:22:19.462Z,145.10
2019-02-27T19:24:47.857Z,136.20
2019-02-27T19:27:19.304Z,127.27
2019-02-27T19:29:47.964Z,125.10
2019-02-27T19:32:16.408Z,127.10
2019-02-27T19:34:48.492Z,116.60
2019-02-27T19:37:19.809Z,119.00
2019-02-27T19:39:53.415Z,118.90
2019-02-27T19:42:23.503Z,114.70
2019-02-27T19:44:54.968Z,113.07
2019-02-27T19:47:24.089Z,104.70
2019-02-27T19:49:52.626Z,99.67
2019-02-27T19:52:26.639Z,99.83
2019-02-27T19:54:56.326Z,107.00
2019-02-27T19:57:25.008Z,91.77
2019-02-27T19:59:58.647Z,95.33
2019-02-27T20:02:28.181Z,99.53
2019-02-27T20:04:59.527Z,88.53
2019-02-27T20:07:32.937Z,87.93
2019-02-27T20:10:04.929Z,88.93
2019-02-27T20:12:37.217Z,86.93
2019-02-27T20:15:11.017Z,88.73
2019-02-27T20:17:40.736Z,92.37
2019-02-27T20:20:13.484Z,84.73
2019-02-27T20:22:44.690Z,78.97
2019-02-27T20:25:18.078Z,84.63
2019-02-27T20:27:46.461Z,92.20
2019-02-27T20:30:24.502Z,79.97
2019-02-27T20:32:56.753Z,76.87
2019-02-27T20:35:25.722Z,77.67
2019-02-27T20:37:55.830Z,74.10
2019-02-27T20:40:27.653Z,74.73
2019-02-27T20:43:01.480Z,70.83
2019-02-27T20:45:32.529Z,76.40
2019-02-27T20:48:03.884Z,74.53
2019-02-27T20:50:36.575Z,68.13
2019-02-27T20:53:10.586Z,71.50
2019-02-27T20:55:40.200Z,68.87
2019-02-27T20:58:08.724Z,68.10
2019-02-27T21:00:37.308Z,68.47
2019-02-27T21:03:06.881Z,67.60
2019-02-27T21:05:40.956Z,64.33
2019-02-27T21:08:07.835Z,66.47
2019-02-27T21:10:39.603Z,67.50
2019-02-27T21:13:15.471Z,66.23
2019-02-27T21:15:41.869Z,66.30
2019-02-27T21:18:13.802Z,65.53
2019-02-27T21:20:45.251Z,60.37
2019-02-27T21:23:14.989Z,55.77
2019-02-27T21:25:48.773Z,58.57
2019-02-27T21:28:21.023Z,57.83
2019-02-27T21:30:52.024Z,63.40
2019-02-27T21:33:22.383Z,55.20
2019-02-27T21:35:52.463Z,62.23
2019-02-27T21:38:22.673Z,59.03
2019-02-27T21:40:53.016Z,65.90
2019-02-27T21:43:25.740Z,56.87
2019-02-27T21:45:58.095Z,60.13
2019-02-27T21:48:29.393Z,58.20
2019-02-27T21:50:58.098Z,60.20
2019-02-27T21:53:29.936Z,60.60
2019-02-27T21:56:01.330Z,56.60
2019-02-27T21:58:33.317Z,54.70
2019-02-27T22:01:05.293Z,54.07
2019-02-27T22:03:38.434Z,50.73
2019-02-27T22:06:08.998Z,54.40
2019-02-27T22:08:38.904Z,51.77
2019-02-27T22:11:11.511Z,50.83
2019-02-27T22:13:42.218Z,46.53
2019-02-27T22:16:10.588Z,50.57
2019-02-27T22:18:39.033Z,46.90
2019-02-27T22:21:07.480Z,53.07
2019-02-27T22:23:37.510Z,48.43
2019-02-27T22:26:07.311Z,49.13
2019-02-27T22:28:35.753Z,51.60
2019-02-27T22:31:06.627Z,48.20
2019-02-27T22:33:38.016Z,44.63
2019-02-27T22:36:12.357Z,45.20
2019-02-27T22:38:39.096Z,46.50
2019-02-27T22:41:09.530Z,47.10
2019-02-27T22:43:43.081Z,49.50
2019-02-27T22:46:16.302Z,44.30
2019-02-27T22:48:43.665Z,47.17
2019-02-27T22:51:13.401Z,47.77
2019-02-27T22:53:42.907Z,45.43
2019-02-27T22:56:16.853Z,44.30
2019-02-27T22:58:45.397Z,45.07
2019-02-27T23:01:19.837Z,41.87
2019-02-27T23:03:58.006Z,48.27
2019-02-27T23:06:25.742Z,40.93
2019-02-27T23:08:55.111Z,41.07
2019-02-27T23:11:23.665Z,41.37
2019-02-27T23:13:54.770Z,45.57
2019-02-27T23:16:24.979Z,40.73
2019-02-27T23:18:55.916Z,39.67
2019-02-27T23:21:27.711Z,44.97
2019-02-27T23:24:02.518Z,44.53
2019-02-27T23:26:33.680Z,39.90
2019-02-27T23:29:05.526Z,41.30
2019-02-27T23:31:36.676Z,38.23
2019-02-27T23:34:13.727Z,40.33
2019-02-27T23:36:45.260Z,37.10
2019-02-27T23:39:13.710Z,37.50
2019-02-27T23:41:44.944Z,37.57
2019-02-27T23:44:16.709Z,39.67
2019-02-27T23:46:49.622Z,33.70
2019-02-27T23:49:15.214Z,36.47
2019-02-27T23:51:44.190Z,35.17
2019-02-27T23:54:15.888Z,37.00
2019-02-27T23:56:44.589Z,35.07
2019-02-27T23:59:13.835Z,36.83
